Share

Funafuti Airport, Tuvalu

2:51 AM TVT on April 24, 2014 (GMT +1200)
Funafuti International (NGFU) Elev 7 ft | 8.52 °S, 179.22 °E | Change Station

Current weather conditions updated 51 minutes ago

Scattered Clouds
Scattered Clouds
82 °F
Feels Like 91 °F
N
4
Wind Variable Wind from Variable
Sunrise 6:05 AM
Sunset 5:56 PM
Moon Waning Crescent

Today is forecast to be Cooler than yesterday. Scattered thunderstorms possible.

Pressure 29.77 in
Visibility 6.2 miles
Clouds Scattered Clouds 1900 ft
Heat Index 91 °F
Dew Point 77 °F
Humidity 84%
Rainfall 0.00 in
Snow Depth Not available.
UV 0 out of 16
Pollen Not available.
Air Quality Not available.
Flu Activity Not available.
METAR NGFU 231400Z VRB03KT 9999 SCT019TCU 28/25 Q1008 RE-SH

More Conditions Fewer Conditions

Pressure 29.77 in
Visibility 6.2 miles
Clouds Scattered Clouds 1900 ft
Heat Index 91 °F
Dew Point 77 °F
Humidity 84%
Rainfall 0.00 in
Snow Depth Not available.
UV 0 out of 16
Pollen Not available.
Air Quality Not available.
Flu Activity Not available.
METAR NGFU 231400Z VRB03KT 9999 SCT019TCU 28/25 Q1008 RE-SH

More Conditions Fewer Conditions

10-Day Weather Forecast

Almanac

Astronomy

Apr. 24, 2014 Rise Set
Actual Time 6:05 AM TVT 5:56 PM TVT
Civil Twilight 5:44 AM TVT 6:18 PM TVT
Nautical Twilight 5:19 AM TVT 6:43 PM TVT
Astronomical Twilight 4:54 AM TVT 7:07 PM TVT
Moon 1:12 AM TVT (4/24) 1:49 PM TVT (4/24)
Length of Visible Light 12h 34m
Length of Day
11h 51m
Tomorrow will be 0m 25s shorter.
Waning Crescent, 35% of the Moon is Illuminated
Apr 23
Waning Crescent
Apr 29
New
May 6
First Quarter
May 14
Full
May 21
Last Quarter

Yesterday's Extremes

Country Highs Country Lows

Community

  • spring flowers
    spring flowers
  • Earth Day Spectrum Ove' Blue
    Earth Day Spectrum Ove' Blue
  • BARN B&W
    BARN B&W
  • April Sunset
    April Sunset
  • Waiting..
    Waiting..

WunderPhotos

Upload Photos

1,704,299 photos uploaded!

Nearby

Snow Depth

Not available.

Coastal Water Temperatures

Place Temperature
No Stations Reporting

Earthquake Activity

City Distance Mag. Time & Date
No recent earthquake activity has been reported nearby.
Minimum magnitude displayed is 2.5.

Nearby Weather Stations

There are no personal weather stations in this area.

What do you think?

We're not finished. Please let us know what you like, what you don't like, and what you are still missing.